x

Georgian Bay (45137) Wave Buoy

9:00pm - Tue 7th Jul 2015 All times are CDT. -5 hours from GMT.

  • Sig Wave height 2.0ft
  • Peak Period 4s
  • Wind
    9mph, 11mph gusts
  • Sea Temp 61°f
  • Air Temp 61°f
  • Sea Pressure 1016mb
  • Georgian Bay
  • Georgian Bay

More Historic Weather Station data

Upgrade to MSW Pro to gain access to the past 30 days of data for over 8000 Wavebouys and Weather Stations around the globe.

Join Pro

Comparision Forecast

View Surf forecast
   
Tue 07/07 9:00pm 2ft 4s 9 11 mph 1016mb 61f 61f
8:00pm 2.5ft 4s 13 16 mph 1014.8mb 61f 61f
7:00pm 2.5ft 4s 18 22 mph 1013.8mb 61f 61f
6:00pm  -   -  20
mph
1012.9mb - 61f
5:00pm 2.5ft 4s 16 20 mph 1012.6mb 62f 62f
4:00pm 2.5ft 4s 18 20 mph 1011.9mb 62f 61f
2:00pm 2.5ft 4s 20 22 mph 1009.8mb 62f 61f
1:00pm 1.6ft 4s 20 25 mph 1009.3mb 62f 61f
12:00pm 1.6ft 4s 13 20 mph 1009mb 62f 61f
11:00am 2.5ft 4s 11 13 mph 1008.9mb 62f 60f
10:00am 2.5ft 4s 11 13 mph 1008.6mb 62f 60f
9:00am 2.5ft 4s 16 20 mph 1007.8mb 62f 60f
8:00am 2.5ft 4s 18 22 mph 1007.9mb 61f 63f
7:00am 2.5ft 4s 11 13 mph 1008.2mb 61f 63f
6:00am 3ft 4s 16 18 mph 1008mb 61f 64f
5:00am 2.5ft 4s 11 13 mph 1008mb 61f 64f
4:00am 2ft 3s 16 20 mph 1008.1mb 61f 65f
3:00am 1.3ft 3s 18 22 mph 1008.1mb 62f 64f
2:00am 1.3ft 3s 16 18 mph 1008.9mb 62f 65f
1:00am 1ft 2s 16 18 mph 1009.6mb 62f 65f
12:00am 0.7ft 2s 13 16 mph 1010.4mb 62f 65f
Mon 07/06 11:00pm 0.3ft 2s 11 13 mph 1010.9mb 62f 65f
10:00pm 0.3ft 2s 11 13 mph 1011.3mb 62f 65f
9:00pm 0.3ft 2s 9 11 mph 1012mb 62f 65f
8:00pm 0.7ft 2s 9 11 mph 1012.4mb 62f 65f
7:00pm 0.7ft 2s 9 11 mph 1013.1mb 63f 64f
6:00pm 0.7ft 2s 9
mph
1013.2mb 63f 65f
5:00pm 0.7ft 2s 7
mph
1014.3mb 63f 66f
4:00pm 1ft 3s 9 11 mph 1014.9mb 63f 65f
3:00pm 1ft 3s 9 11 mph 1015.6mb 62f 65f
2:00pm 1ft 3s 11 13 mph 1015.8mb 62f 64f
1:00pm 1ft 3s 11 13 mph 1016.4mb 62f 63f
12:00pm 1ft 3s 11 13 mph 1016.8mb 62f 64f
11:00am 1ft 3s 11 13 mph 1017.4mb 61f 64f
10:00am 0.7ft 3s 11 13 mph 1017.3mb 61f 64f
9:00am 0.7ft 2s 11 16 mph 1018mb 61f 62f
8:00am 1ft 2s 11 13 mph 1018.1mb 61f 62f
7:00am  -   -  13
mph
1017.6mb - 63f
6:00am 0.7ft 2s 11 13 mph 1017.6mb 61f 62f
5:00am 0.7ft 2s 11 13 mph 1017.7mb 61f 63f
4:00am 0.7ft 2s 11 13 mph 1017.6mb 62f 63f
3:00am 0.3ft 2s 9 11 mph 1017.5mb 62f 63f
2:00am 0.3ft 2s 9
mph
1017.5mb 62f 63f
1:00am 0.3ft 2s 9
mph
1017.5mb 62f 63f
12:00am 0.3ft 2s 9 11 mph 1017.8mb 62f 63f
Sun 07/05 11:00pm 0.3ft 2s 9
mph
1018.4mb 62f 63f
10:00pm 0.3ft 2s 4 7 mph 1018.7mb 62f 63f
9:00pm 0.3ft 2s 9
mph
1018.8mb 63f 63f
8:00pm 0.3ft 2s 7 9 mph 1018.6mb 63f 63f
7:00pm 0.3ft 2s 4
mph
1018.9mb 63f 63f
6:00pm 0.3ft 2s 9
mph
1019.1mb 63f 64f
5:00pm 0.3ft 2s 4 7 mph 1019.2mb 63f 64f
4:00pm 0.3ft 2s 4 7 mph 1019.3mb 63f 64f
3:00pm 0.3ft 2s 7 9 mph 1019.7mb 63f 63f
2:00pm 0.3ft 2s 7
mph
1020mb 63f 62f
1:00pm 0.3ft 2s 7 9 mph 1019.9mb 62f 62f
12:00pm 0.3ft 2s 7
mph
1020.1mb 62f 61f
11:00am 0.3ft 2s 7
mph
1020.6mb 61f 60f
10:00am 0.3ft 2s 7 9 mph 1020.4mb 61f 60f
9:00am 0.3ft 2s 7 9 mph 1020.1mb 61f 60f
8:00am 0.3ft 3s 4 7 mph 1019.8mb 60f 60f
7:00am 0.7ft 3s 7 9 mph 1019.2mb 60f 60f
6:00am 0.7ft 3s 4 7 mph 1018.6mb 60f 60f
5:00am 1ft 3s 9 11 mph 1018.4mb 60f 60f
4:00am 1ft 3s 9 11 mph 1017.8mb 60f 60f
3:00am 1ft 3s 11 13 mph 1017.6mb 60f 60f
2:00am 1ft 3s 11 13 mph 1017.6mb 60f 60f
1:00am 1ft 3s 11 13 mph 1017.3mb 60f 60f
12:00am 1ft 3s 11 13 mph 1016.9mb 60f 60f
Sat 07/04 11:00pm 1.3ft 3s 11
mph
1016.4mb 60f 60f
10:00pm 1.3ft 3s 13 16 mph 1016.1mb 60f 60f
9:00pm 1.3ft 3s 13 16 mph 1015.7mb 60f 60f
8:00pm 1.3ft 3s 11 13 mph 1014.8mb 60f 61f
7:00pm 1.3ft 3s 13 16 mph 1014.5mb 61f 61f
6:00pm 1.3ft 3s 13 16 mph 1014.4mb 61f 61f
5:00pm 0.7ft 3s 13 16 mph 1014.6mb 62f 61f
4:00pm 0.3ft 3s 11
mph
1014.6mb 63f 62f
3:00pm 0.3ft 3s 4 7 mph 1014.6mb 63f 62f
2:00pm 0.3ft 2s 4
mph
1014.5mb 63f 62f
1:00pm 0.3ft 3s 2 4 mph 1014.5mb 62f 62f
12:00pm 0.3ft 2s 4
mph
1014.2mb 61f 61f
11:00am 0.3ft 2s 4
mph
1014.7mb 60f 60f
8:00am 0.3ft 2s 7 9 mph 1014.1mb 59f 59f
7:00am 0.3ft 2s 9
mph
1013.9mb 59f 59f
6:00am 0.3ft 2s 9 11 mph 1013.5mb 59f 59f
5:00am 0.3ft 2s 7 9 mph 1013.2mb 59f 60f
4:00am 0.3ft 2s 4
mph
1013.3mb 59f 60f